首页
METAR-TAF:

METAR-TAF

机场 :

Siler City, 北卡罗来纳州, 美国

纬度: 35-42-15N, 经度: 079-30-15W, 海拔: 187米

当前天气观测

该预报发布于21分钟前的00:05 UTC
风速7节,风向北转东北
温度 19°C
湿度 94%
气压 1021 hPa
能見度: 16.1公里
阴天层高于900英尺

METAR: KSCR 240005Z AUTO 03007KT 10SM OVC009 19/18 A3014 RMK AO2 T01930180

时间: 20:26 (00:26 UTC)


TAF: 丢失

超过4000个机场的气象观测和天气预报(METAR&TAF报告)。

可查询的气象台以黄色和红色小点在地图上表示。

将鼠标移到小点上方,可查看气象台名称。

然后点击查看天气观测和预报。

如需切换地图:点击带黑十字的绿色按钮放大地图;点击带横线的绿色按钮缩小地图;或者点击绿色箭头查看邻近地区的地图。


METAR-TAF: